createdAt,value
2023-05-19T00:00:11.927Z,7.44
2023-05-19T00:02:29.728Z,7.37
2023-05-19T00:04:47.404Z,7.34
2023-05-19T00:07:04.670Z,7.32
2023-05-19T00:09:21.659Z,7.29
2023-05-19T00:11:38.964Z,7.24
2023-05-19T00:13:56.337Z,7.21
2023-05-19T00:16:13.467Z,7.18
2023-05-19T00:18:30.938Z,7.14
2023-05-19T00:20:47.957Z,7.13
2023-05-19T00:23:05.210Z,7.09
2023-05-19T00:25:22.244Z,7.10
2023-05-19T00:27:39.252Z,7.10
2023-05-19T00:29:56.217Z,7.08
2023-05-19T00:32:13.234Z,7.06
2023-05-19T00:34:30.356Z,7.03
2023-05-19T00:36:47.724Z,7.02
2023-05-19T00:39:04.778Z,7.00
2023-05-19T00:41:22.154Z,6.97
2023-05-19T00:43:40.381Z,6.92
2023-05-19T00:45:58.763Z,6.90
2023-05-19T00:48:16.060Z,6.86
2023-05-19T00:50:33.572Z,6.80
2023-05-19T00:52:51.193Z,6.77
2023-05-19T00:55:08.177Z,6.71
2023-05-19T00:57:25.208Z,6.66
2023-05-19T00:59:42.540Z,6.63
2023-05-19T01:01:59.540Z,6.62
2023-05-19T01:04:17.519Z,6.58
2023-05-19T01:06:35.744Z,6.53
2023-05-19T01:08:53.106Z,6.50
2023-05-19T01:11:10.196Z,6.49
2023-05-19T01:13:27.506Z,6.45
2023-05-19T01:15:45.913Z,6.43
2023-05-19T01:18:03.239Z,6.41
2023-05-19T01:20:20.552Z,6.39
2023-05-19T01:22:37.580Z,6.38
2023-05-19T01:24:54.882Z,6.36
2023-05-19T01:27:12.286Z,6.37
2023-05-19T01:29:30.696Z,6.32
2023-05-19T01:31:48.137Z,6.30
2023-05-19T01:34:05.082Z,6.28
2023-05-19T01:36:22.404Z,6.25
2023-05-19T01:38:40.122Z,6.23
2023-05-19T01:40:57.875Z,6.21
2023-05-19T01:43:14.829Z,6.18
2023-05-19T01:45:31.835Z,6.17
2023-05-19T01:47:49.138Z,6.13
2023-05-19T01:50:06.530Z,6.12
2023-05-19T01:52:24.176Z,6.07
2023-05-19T01:54:41.152Z,6.07
2023-05-19T01:57:00.140Z,6.03
2023-05-19T01:59:17.463Z,6.01
2023-05-19T02:01:34.491Z,5.97
2023-05-19T02:03:51.865Z,5.94
2023-05-19T02:06:08.826Z,5.93
2023-05-19T02:08:26.166Z,5.90
2023-05-19T02:10:43.436Z,5.90
2023-05-19T02:13:00.369Z,5.86
2023-05-19T02:15:18.639Z,5.85
2023-05-19T02:17:35.973Z,5.84
2023-05-19T02:19:52.904Z,5.82
2023-05-19T02:22:09.829Z,5.81
2023-05-19T02:24:27.156Z,5.81
2023-05-19T02:26:44.553Z,5.79
2023-05-19T02:29:01.480Z,5.77
2023-05-19T02:31:18.496Z,5.75
2023-05-19T02:33:35.791Z,5.76
2023-05-19T02:35:53.188Z,5.73
2023-05-19T02:38:10.169Z,5.71
2023-05-19T02:40:27.190Z,5.67
2023-05-19T02:42:44.593Z,5.65
2023-05-19T02:45:02.029Z,5.63
2023-05-19T02:47:18.994Z,5.60
2023-05-19T02:49:36.342Z,5.56
2023-05-19T02:51:53.584Z,5.56
2023-05-19T02:54:10.921Z,5.54
2023-05-19T02:56:28.210Z,5.53
2023-05-19T02:58:45.074Z,5.53
2023-05-19T03:01:02.391Z,5.52
2023-05-19T03:03:19.844Z,5.51
2023-05-19T03:05:37.786Z,5.53
2023-05-19T03:07:55.122Z,5.50
2023-05-19T03:10:12.461Z,5.48
2023-05-19T03:12:29.357Z,5.48
2023-05-19T03:14:47.690Z,5.45
2023-05-19T03:17:05.058Z,5.45
2023-05-19T03:19:22.500Z,5.45
2023-05-19T03:21:39.589Z,5.43
2023-05-19T03:23:56.494Z,5.45
2023-05-19T03:26:13.393Z,5.47
2023-05-19T03:28:30.341Z,5.44
2023-05-19T03:30:47.376Z,5.44
2023-05-19T03:33:04.741Z,5.45
2023-05-19T03:35:22.073Z,5.44
2023-05-19T03:37:39.444Z,5.45
2023-05-19T03:39:56.414Z,5.44
2023-05-19T03:42:14.789Z,5.43
2023-05-19T03:44:32.550Z,5.38
2023-05-19T03:46:49.840Z,5.37
2023-05-19T03:49:06.843Z,5.33
2023-05-19T03:51:24.116Z,5.33
2023-05-19T03:53:41.494Z,5.34
2023-05-19T03:55:58.827Z,5.34
2023-05-19T03:58:15.779Z,5.31
2023-05-19T04:00:33.292Z,5.27
2023-05-19T04:02:50.791Z,5.24
2023-05-19T04:05:08.151Z,5.24
2023-05-19T04:07:25.435Z,5.26
2023-05-19T04:09:42.771Z,5.32
2023-05-19T04:11:59.840Z,5.33
2023-05-19T04:14:17.819Z,5.33
2023-05-19T04:16:35.225Z,5.32
2023-05-19T04:18:53.036Z,5.36
2023-05-19T04:21:11.022Z,5.35
2023-05-19T04:23:28.795Z,5.35
2023-05-19T04:25:46.190Z,5.38
2023-05-19T04:28:03.492Z,5.41
2023-05-19T04:30:21.763Z,5.40
2023-05-19T04:32:38.758Z,5.41
2023-05-19T04:34:56.105Z,5.38
2023-05-19T04:37:13.474Z,5.47
2023-05-19T04:39:31.254Z,5.50
2023-05-19T04:41:48.279Z,5.51
2023-05-19T04:44:06.051Z,5.51
2023-05-19T04:46:23.437Z,5.51
2023-05-19T04:48:40.417Z,5.49
2023-05-19T04:50:57.758Z,5.52
2023-05-19T04:53:15.521Z,5.55
2023-05-19T04:55:32.484Z,5.55
2023-05-19T04:57:49.961Z,5.55
2023-05-19T05:00:06.954Z,5.57
2023-05-19T05:02:24.099Z,5.61
2023-05-19T05:04:41.165Z,5.62
2023-05-19T05:06:58.481Z,5.66
2023-05-19T05:09:15.424Z,5.72
2023-05-19T05:11:32.760Z,5.81
2023-05-19T05:13:50.148Z,5.91
2023-05-19T05:16:07.445Z,5.98
2023-05-19T05:18:24.768Z,6.07
2023-05-19T05:20:41.860Z,6.12
2023-05-19T05:22:59.161Z,6.19
2023-05-19T05:25:16.440Z,6.26
2023-05-19T05:27:33.752Z,6.33
2023-05-19T05:29:51.726Z,6.41
2023-05-19T05:32:09.107Z,6.55
2023-05-19T05:34:26.055Z,6.63
2023-05-19T05:36:43.341Z,6.76
2023-05-19T05:39:00.324Z,6.87
2023-05-19T05:41:18.102Z,6.96
2023-05-19T05:43:35.393Z,7.16
2023-05-19T05:45:52.697Z,7.27
2023-05-19T05:48:10.117Z,7.40
2023-05-19T05:50:27.243Z,7.53
2023-05-19T05:52:44.164Z,7.69
2023-05-19T05:55:01.475Z,7.84
2023-05-19T05:57:19.324Z,8.00
2023-05-19T05:59:36.806Z,8.06
2023-05-19T06:01:54.174Z,8.15
2023-05-19T06:04:12.269Z,8.28
2023-05-19T06:06:29.606Z,8.41
2023-05-19T06:08:46.553Z,8.53
2023-05-19T06:11:04.799Z,8.71
2023-05-19T06:13:22.140Z,8.84
2023-05-19T06:15:40.497Z,8.94
2023-05-19T06:18:00.129Z,9.04
2023-05-19T06:20:17.976Z,9.27
2023-05-19T06:22:35.377Z,9.35
2023-05-19T06:24:52.395Z,9.50
2023-05-19T06:27:10.649Z,9.67
2023-05-19T06:29:27.937Z,9.74
2023-05-19T06:31:46.334Z,9.94
2023-05-19T06:34:03.855Z,10.05
2023-05-19T06:36:21.606Z,10.19
2023-05-19T06:38:38.903Z,10.29
2023-05-19T06:40:57.638Z,10.40
2023-05-19T06:43:16.050Z,10.51
2023-05-19T06:45:33.378Z,10.55
2023-05-19T06:47:50.737Z,10.58
2023-05-19T06:50:08.117Z,10.68
2023-05-19T06:52:25.412Z,10.81
2023-05-19T06:54:42.739Z,10.96
2023-05-19T06:57:00.018Z,11.02
2023-05-19T06:59:17.289Z,11.13
2023-05-19T07:01:35.258Z,11.32
2023-05-19T07:03:52.939Z,11.44
2023-05-19T07:06:09.950Z,11.49
2023-05-19T07:08:27.290Z,11.73
2023-05-19T07:10:44.592Z,11.98
2023-05-19T07:13:02.008Z,12.19
2023-05-19T07:15:19.329Z,12.39
2023-05-19T07:17:36.735Z,12.50
2023-05-19T07:19:54.305Z,12.75
2023-05-19T07:22:12.661Z,12.93
2023-05-19T07:24:30.138Z,13.03
2023-05-19T07:26:47.456Z,13.21
2023-05-19T07:29:04.790Z,13.45
2023-05-19T07:31:22.227Z,13.68
2023-05-19T07:33:40.516Z,13.92
2023-05-19T07:35:57.527Z,14.08
2023-05-19T07:38:14.908Z,14.30
2023-05-19T07:40:32.357Z,14.42
2023-05-19T07:42:49.702Z,14.61
2023-05-19T07:45:07.959Z,14.78
2023-05-19T07:47:25.317Z,14.84
2023-05-19T07:49:43.633Z,14.97
2023-05-19T07:52:00.935Z,15.13
2023-05-19T07:54:18.239Z,15.20
2023-05-19T07:56:35.615Z,15.20
2023-05-19T07:58:53.397Z,15.36
2023-05-19T08:01:10.689Z,15.52
2023-05-19T08:03:28.662Z,15.70
2023-05-19T08:05:46.141Z,15.83
2023-05-19T08:08:03.817Z,15.79
2023-05-19T08:10:22.066Z,15.81
2023-05-19T08:12:39.388Z,15.87
2023-05-19T08:14:57.746Z,15.83
2023-05-19T08:17:16.148Z,15.81
2023-05-19T08:19:33.445Z,15.81
2023-05-19T08:21:50.732Z,15.84
2023-05-19T08:24:08.106Z,15.89
2023-05-19T08:26:26.367Z,15.97
2023-05-19T08:28:43.431Z,16.09
2023-05-19T08:31:00.761Z,16.25
2023-05-19T08:33:17.803Z,16.43
2023-05-19T08:35:35.149Z,16.55
2023-05-19T08:37:52.183Z,16.72
2023-05-19T08:40:09.464Z,16.75
2023-05-19T08:42:26.553Z,16.88
2023-05-19T08:44:43.820Z,16.95
2023-05-19T08:47:01.179Z,16.91
2023-05-19T08:49:18.184Z,16.98
2023-05-19T08:51:35.553Z,17.03
2023-05-19T08:53:52.974Z,17.11
2023-05-19T08:56:10.297Z,17.20
2023-05-19T08:58:28.736Z,17.41
2023-05-19T09:00:46.345Z,17.55
2023-05-19T09:03:17.562Z,17.63
2023-05-19T09:05:35.938Z,17.58
2023-05-19T09:07:53.568Z,17.64
2023-05-19T09:10:10.977Z,17.62
2023-05-19T09:12:28.719Z,17.54
2023-05-19T09:14:46.091Z,17.40
2023-05-19T09:17:03.528Z,17.33
2023-05-19T09:19:21.553Z,17.38
2023-05-19T09:21:38.902Z,17.36
2023-05-19T09:23:57.133Z,17.34
2023-05-19T09:26:14.484Z,17.29
2023-05-19T09:28:31.842Z,17.32
2023-05-19T09:30:49.564Z,17.25
2023-05-19T09:33:07.313Z,17.24
2023-05-19T09:35:24.294Z,17.26
2023-05-19T09:37:41.680Z,17.35
2023-05-19T09:39:58.604Z,17.30
2023-05-19T09:42:15.555Z,17.25
2023-05-19T09:44:32.856Z,17.28
2023-05-19T09:46:52.174Z,17.47
2023-05-19T09:49:10.475Z,17.54
2023-05-19T09:51:28.438Z,17.65
2023-05-19T09:53:45.362Z,17.38
2023-05-19T09:56:02.656Z,17.25
2023-05-19T09:58:20.324Z,17.20
2023-05-19T10:00:37.751Z,17.13
2023-05-19T10:02:55.536Z,17.14
2023-05-19T10:05:12.775Z,17.02
2023-05-19T10:07:30.085Z,17.12
2023-05-19T10:09:47.783Z,17.22
2023-05-19T10:12:04.726Z,17.30
2023-05-19T10:14:21.695Z,17.62
2023-05-19T10:16:38.962Z,17.98
2023-05-19T10:18:56.739Z,17.98
2023-05-19T10:21:14.109Z,17.87
2023-05-19T10:23:31.503Z,17.97
2023-05-19T10:25:48.805Z,18.29
2023-05-19T10:28:06.144Z,18.54
2023-05-19T10:30:23.487Z,18.88
2023-05-19T10:32:41.370Z,19.02
2023-05-19T10:34:58.834Z,19.25
2023-05-19T10:37:15.776Z,19.24
2023-05-19T10:39:33.627Z,19.45
2023-05-19T10:41:51.013Z,19.55
2023-05-19T10:44:08.121Z,19.62
2023-05-19T10:46:25.525Z,19.75
2023-05-19T10:48:42.893Z,19.77
2023-05-19T10:51:00.248Z,19.81
2023-05-19T10:53:17.291Z,20.01
2023-05-19T10:55:35.670Z,20.08
2023-05-19T10:57:52.989Z,20.10
2023-05-19T11:00:10.707Z,20.11
2023-05-19T11:02:29.048Z,20.21
2023-05-19T11:04:47.881Z,20.43
2023-05-19T11:07:07.610Z,20.44
2023-05-19T11:09:34.205Z,20.62
2023-05-19T11:11:55.463Z,20.71
2023-05-19T11:14:12.899Z,20.68
2023-05-19T11:16:30.272Z,20.78
2023-05-19T11:18:48.710Z,20.92
2023-05-19T11:21:06.566Z,20.87
2023-05-19T11:23:23.977Z,21.04
2023-05-19T11:25:41.297Z,21.31
2023-05-19T11:27:58.606Z,21.26
2023-05-19T11:30:20.359Z,21.53
2023-05-19T11:32:37.695Z,21.52
2023-05-19T11:34:56.221Z,21.59
2023-05-19T11:37:15.272Z,21.63
2023-05-19T11:39:32.471Z,21.59
2023-05-19T11:41:55.817Z,21.81
2023-05-19T11:44:13.192Z,21.92
2023-05-19T11:46:30.355Z,22.06
2023-05-19T11:48:47.424Z,22.08
2023-05-19T11:51:04.439Z,22.09
2023-05-19T11:53:21.402Z,21.89
2023-05-19T11:55:38.660Z,21.89
2023-05-19T11:58:02.825Z,21.93
2023-05-19T12:00:21.291Z,21.91
2023-05-19T12:02:38.380Z,21.82
2023-05-19T12:04:55.479Z,21.69
2023-05-19T12:07:12.857Z,21.98
2023-05-19T12:09:29.893Z,22.00
2023-05-19T12:11:47.142Z,21.91
2023-05-19T12:14:04.330Z,22.04
2023-05-19T12:16:21.378Z,22.23
2023-05-19T12:18:38.833Z,21.99
2023-05-19T12:20:56.107Z,22.02
2023-05-19T12:23:13.092Z,21.82
2023-05-19T12:25:30.600Z,21.55
2023-05-19T12:27:47.727Z,21.41
2023-05-19T12:30:04.731Z,21.23
2023-05-19T12:32:22.105Z,21.05
2023-05-19T12:34:39.348Z,20.91
2023-05-19T12:36:56.284Z,20.78
2023-05-19T12:39:13.532Z,20.73
2023-05-19T12:41:30.823Z,20.73
2023-05-19T12:43:48.103Z,20.57
2023-05-19T12:46:05.536Z,20.71
2023-05-19T12:48:25.395Z,20.86
2023-05-19T12:50:42.767Z,20.93
2023-05-19T12:53:01.100Z,20.87
2023-05-19T12:55:19.321Z,20.77
2023-05-19T12:57:36.448Z,20.58
2023-05-19T12:59:53.722Z,20.51
2023-05-19T13:02:10.959Z,20.33
2023-05-19T13:04:29.106Z,20.62
2023-05-19T13:06:46.354Z,21.00
2023-05-19T13:09:03.490Z,21.08
2023-05-19T13:11:20.566Z,21.18
2023-05-19T13:13:37.691Z,21.13
2023-05-19T13:15:55.357Z,20.98
2023-05-19T13:18:12.837Z,20.89
2023-05-19T13:20:30.436Z,20.80
2023-05-19T13:22:47.821Z,20.81
2023-05-19T13:25:05.445Z,20.83
2023-05-19T13:27:22.764Z,20.79
2023-05-19T13:29:40.065Z,20.81
2023-05-19T13:31:59.084Z,20.75
2023-05-19T13:34:17.655Z,20.45
2023-05-19T13:36:34.656Z,20.33
2023-05-19T13:38:52.743Z,20.15
2023-05-19T13:41:10.879Z,20.01
2023-05-19T13:43:28.251Z,19.93
2023-05-19T13:45:45.176Z,19.87
2023-05-19T13:48:02.212Z,19.74
2023-05-19T13:50:19.280Z,19.69
2023-05-19T13:52:38.227Z,19.64
2023-05-19T13:54:56.572Z,19.58
2023-05-19T13:57:13.849Z,19.65
2023-05-19T13:59:31.112Z,19.54
2023-05-19T14:01:48.539Z,19.56
2023-05-19T14:04:05.656Z,19.55
2023-05-19T14:06:22.688Z,19.55
2023-05-19T14:08:39.623Z,19.56
2023-05-19T14:10:56.622Z,19.36
2023-05-19T14:13:31.018Z,19.28
2023-05-19T14:15:50.281Z,19.30
2023-05-19T14:18:07.613Z,19.30
2023-05-19T14:20:26.265Z,19.32
2023-05-19T14:22:44.619Z,19.29
2023-05-19T14:25:01.955Z,19.34
2023-05-19T14:27:19.643Z,19.31
2023-05-19T14:29:36.835Z,19.32
2023-05-19T14:31:54.566Z,19.39
2023-05-19T14:34:11.930Z,19.44
2023-05-19T14:36:29.650Z,19.47
2023-05-19T14:38:46.947Z,19.55
2023-05-19T14:41:03.991Z,19.58
2023-05-19T14:43:20.958Z,19.57
2023-05-19T14:45:38.321Z,19.58
2023-05-19T14:47:55.733Z,19.49
2023-05-19T14:50:12.736Z,19.41
2023-05-19T14:52:30.731Z,19.37
2023-05-19T14:54:47.993Z,19.29
2023-05-19T14:57:04.968Z,19.30
2023-05-19T14:59:22.002Z,19.28
2023-05-19T15:01:39.504Z,19.28
2023-05-19T15:03:56.929Z,19.25
2023-05-19T15:06:13.951Z,19.28
2023-05-19T15:08:31.919Z,19.30
2023-05-19T15:10:49.030Z,19.25
2023-05-19T15:13:06.779Z,19.26
2023-05-19T15:15:23.713Z,19.22
2023-05-19T15:17:40.710Z,19.12
2023-05-19T15:19:58.109Z,19.09
2023-05-19T15:22:15.118Z,19.09
2023-05-19T15:24:32.090Z,19.08
2023-05-19T15:26:49.122Z,19.03
2023-05-19T15:29:07.376Z,18.91
2023-05-19T15:31:24.375Z,18.86
2023-05-19T15:33:41.711Z,18.82
2023-05-19T15:35:58.706Z,18.80
2023-05-19T15:38:16.053Z,18.76
2023-05-19T15:40:33.744Z,18.71
2023-05-19T15:42:51.328Z,18.68
2023-05-19T15:45:08.709Z,18.65
2023-05-19T15:47:26.024Z,18.60
2023-05-19T15:49:43.204Z,18.55
2023-05-19T15:52:01.519Z,18.55
2023-05-19T15:54:18.629Z,18.50
2023-05-19T15:56:35.584Z,18.44
2023-05-19T15:58:52.640Z,18.42
2023-05-19T16:01:10.748Z,18.38
2023-05-19T16:03:28.249Z,18.36
2023-05-19T16:05:45.986Z,18.26
2023-05-19T16:08:03.961Z,18.30
2023-05-19T16:10:21.083Z,18.27
2023-05-19T16:12:38.454Z,18.22
2023-05-19T16:14:56.805Z,18.21
2023-05-19T16:17:14.092Z,18.19
2023-05-19T16:19:31.489Z,18.20
2023-05-19T16:21:49.040Z,18.18
2023-05-19T16:24:06.032Z,18.14
2023-05-19T16:26:22.969Z,18.08
2023-05-19T16:28:40.364Z,18.04
2023-05-19T16:30:57.728Z,18.01
2023-05-19T16:33:14.967Z,17.96
2023-05-19T16:35:32.368Z,17.90
2023-05-19T16:37:50.390Z,17.84
2023-05-19T16:40:07.692Z,17.80
2023-05-19T16:42:24.708Z,17.76
2023-05-19T16:44:41.963Z,17.72
2023-05-19T16:46:59.722Z,17.70
2023-05-19T16:49:18.047Z,17.66
2023-05-19T16:51:35.293Z,17.59
2023-05-19T16:53:52.690Z,17.56
2023-05-19T16:56:10.620Z,17.50
2023-05-19T16:58:28.916Z,17.46
2023-05-19T17:00:47.389Z,17.42
2023-05-19T17:03:04.750Z,17.36
2023-05-19T17:05:21.789Z,17.31
2023-05-19T17:07:39.196Z,17.23
2023-05-19T17:09:56.509Z,17.16
2023-05-19T17:12:13.946Z,17.11
2023-05-19T17:14:31.354Z,17.07
2023-05-19T17:16:49.203Z,17.04
2023-05-19T17:19:06.245Z,17.00
2023-05-19T17:21:23.222Z,16.95
2023-05-19T17:23:40.594Z,16.91
2023-05-19T17:25:57.982Z,16.89
2023-05-19T17:28:15.768Z,16.87
2023-05-19T17:30:33.015Z,16.85
2023-05-19T17:32:51.587Z,16.82
2023-05-19T17:35:09.399Z,16.80
2023-05-19T17:37:26.714Z,16.78
2023-05-19T17:39:43.855Z,16.75
2023-05-19T17:42:01.220Z,16.73
2023-05-19T17:44:18.652Z,16.69
2023-05-19T17:46:35.729Z,16.65
2023-05-19T17:48:52.844Z,16.61
2023-05-19T17:51:09.834Z,16.59
2023-05-19T17:53:27.602Z,16.56
2023-05-19T17:55:46.035Z,16.53
2023-05-19T17:58:04.040Z,16.49
2023-05-19T18:00:21.381Z,16.44
2023-05-19T18:02:41.044Z,16.42
2023-05-19T18:04:58.524Z,16.38
2023-05-19T18:07:15.853Z,16.35
2023-05-19T18:09:32.836Z,16.33
2023-05-19T18:11:50.017Z,16.30
2023-05-19T18:14:07.366Z,16.24
2023-05-19T18:16:24.684Z,16.20
2023-05-19T18:18:42.039Z,16.13
2023-05-19T18:20:59.432Z,16.08
2023-05-19T18:23:16.749Z,16.03
2023-05-19T18:25:33.694Z,16.00
2023-05-19T18:27:50.957Z,15.96
2023-05-19T18:30:08.141Z,15.93
2023-05-19T18:32:26.128Z,15.90
2023-05-19T18:34:43.158Z,15.88
2023-05-19T18:37:00.451Z,15.86
2023-05-19T18:39:17.831Z,15.80
2023-05-19T18:41:35.174Z,15.75
2023-05-19T18:43:52.556Z,15.71
2023-05-19T18:46:09.866Z,15.65
2023-05-19T18:48:27.242Z,15.60
2023-05-19T18:50:44.222Z,15.58
2023-05-19T18:53:01.511Z,15.55
2023-05-19T18:55:18.783Z,15.52
2023-05-19T18:57:35.839Z,15.50
2023-05-19T18:59:52.856Z,15.48
2023-05-19T19:02:09.856Z,15.44
2023-05-19T19:04:26.949Z,15.39
2023-05-19T19:06:45.417Z,15.36
2023-05-19T19:09:02.442Z,15.33
2023-05-19T19:11:19.852Z,15.30
2023-05-19T19:13:37.163Z,15.26
2023-05-19T19:15:54.169Z,15.23
2023-05-19T19:18:11.583Z,15.20
2023-05-19T19:20:28.548Z,15.14
2023-05-19T19:22:45.839Z,15.12
2023-05-19T19:25:03.230Z,15.12
2023-05-19T19:27:20.276Z,15.09
2023-05-19T19:29:37.289Z,15.07
2023-05-19T19:31:54.402Z,15.04
2023-05-19T19:34:11.896Z,14.99
2023-05-19T19:36:29.209Z,14.94
2023-05-19T19:38:46.538Z,14.90
2023-05-19T19:41:03.493Z,14.85
2023-05-19T19:43:20.780Z,14.77
2023-05-19T19:45:37.752Z,14.71
2023-05-19T19:47:55.028Z,14.63
2023-05-19T19:50:12.338Z,14.52
2023-05-19T19:52:29.739Z,14.41
2023-05-19T19:54:47.032Z,14.30
2023-05-19T19:57:04.770Z,14.21
2023-05-19T19:59:22.026Z,14.11
2023-05-19T20:01:39.152Z,14.02
2023-05-19T20:03:56.708Z,13.98
2023-05-19T20:06:14.583Z,13.92
2023-05-19T20:08:31.571Z,13.87
2023-05-19T20:10:48.740Z,13.80
2023-05-19T20:13:06.101Z,13.75
2023-05-19T20:15:23.422Z,13.70
2023-05-19T20:17:40.801Z,13.66
2023-05-19T20:19:58.192Z,13.60
2023-05-19T20:22:15.460Z,13.50
2023-05-19T20:24:32.826Z,13.45
2023-05-19T20:26:49.776Z,13.38
2023-05-19T20:29:06.762Z,13.32
2023-05-19T20:31:23.730Z,13.27
2023-05-19T20:33:40.897Z,13.23
2023-05-19T20:35:57.821Z,13.22
2023-05-19T20:38:15.773Z,13.22
2023-05-19T20:40:32.720Z,13.21
2023-05-19T20:42:50.348Z,13.20
2023-05-19T20:45:07.622Z,13.18
2023-05-19T20:47:24.969Z,13.20
2023-05-19T20:49:42.037Z,13.25
2023-05-19T20:51:59.413Z,13.24
2023-05-19T20:54:16.693Z,13.25
2023-05-19T20:56:33.758Z,13.24
2023-05-19T20:58:51.103Z,13.21
2023-05-19T21:01:08.430Z,13.22
2023-05-19T21:03:26.156Z,13.25
2023-05-19T21:05:43.574Z,13.25
2023-05-19T21:08:02.267Z,13.24
2023-05-19T21:10:19.551Z,13.24
2023-05-19T21:12:36.619Z,13.21
2023-05-19T21:14:53.714Z,13.16
2023-05-19T21:17:10.774Z,13.15
2023-05-19T21:19:28.149Z,13.15
2023-05-19T21:21:46.174Z,13.15
2023-05-19T21:24:03.471Z,13.14
2023-05-19T21:26:21.124Z,13.15
2023-05-19T21:28:38.212Z,13.16
2023-05-19T21:30:55.240Z,13.15
2023-05-19T21:33:12.342Z,13.14
2023-05-19T21:35:29.620Z,13.14
2023-05-19T21:37:48.024Z,13.13
2023-05-19T21:40:05.335Z,13.16
2023-05-19T21:42:22.478Z,13.18
2023-05-19T21:44:39.874Z,13.18
2023-05-19T21:46:57.258Z,13.16
2023-05-19T21:49:14.613Z,13.15
2023-05-19T21:51:31.631Z,13.15
2023-05-19T21:53:49.049Z,13.13
2023-05-19T21:56:06.374Z,13.11
2023-05-19T21:58:23.730Z,13.08
2023-05-19T22:00:41.082Z,13.08
2023-05-19T22:02:58.097Z,13.09
2023-05-19T22:05:15.172Z,13.07
2023-05-19T22:07:32.222Z,13.05
2023-05-19T22:09:49.749Z,13.05
2023-05-19T22:12:07.697Z,13.04
2023-05-19T22:14:24.968Z,13.06
2023-05-19T22:16:42.118Z,13.02
2023-05-19T22:18:59.861Z,13.03
2023-05-19T22:21:17.201Z,13.02
2023-05-19T22:23:34.169Z,13.04
2023-05-19T22:25:51.522Z,13.02
2023-05-19T22:28:08.641Z,13.05
2023-05-19T22:30:26.323Z,13.04
2023-05-19T22:32:43.692Z,13.04
2023-05-19T22:35:01.594Z,13.02
2023-05-19T22:37:18.647Z,13.03
2023-05-19T22:39:36.040Z,13.06
2023-05-19T22:41:55.583Z,13.07
2023-05-19T22:44:12.919Z,13.06
2023-05-19T22:46:30.029Z,13.03
2023-05-19T22:48:47.435Z,13.04
2023-05-19T22:51:05.212Z,13.07
2023-05-19T22:53:23.701Z,13.07
2023-05-19T22:55:41.744Z,13.08
2023-05-19T22:57:58.755Z,13.07
2023-05-19T23:00:16.115Z,13.05
2023-05-19T23:02:33.104Z,13.01
2023-05-19T23:04:50.600Z,12.99
2023-05-19T23:07:07.616Z,12.97
2023-05-19T23:09:26.016Z,12.97
2023-05-19T23:11:43.380Z,12.94
2023-05-19T23:14:00.565Z,12.92
2023-05-19T23:16:17.933Z,12.91
2023-05-19T23:18:35.907Z,12.91
2023-05-19T23:20:53.187Z,12.91
2023-05-19T23:23:10.560Z,12.90
2023-05-19T23:25:27.567Z,12.90
2023-05-19T23:27:44.970Z,12.89
2023-05-19T23:30:01.988Z,12.88
2023-05-19T23:32:19.472Z,12.89
2023-05-19T23:34:36.461Z,12.89
2023-05-19T23:36:54.614Z,12.88
2023-05-19T23:39:11.567Z,12.90
2023-05-19T23:41:29.027Z,12.89
2023-05-19T23:43:46.941Z,12.88
2023-05-19T23:46:04.047Z,12.85
2023-05-19T23:48:21.433Z,12.85
2023-05-19T23:50:38.759Z,12.82
2023-05-19T23:52:55.851Z,12.81
2023-05-19T23:55:12.805Z,12.77
2023-05-19T23:57:30.552Z,12.79
2023-05-19T23:59:47.880Z,12.78
